Time;durP1;ratioP1;P1;durP2;ratioP2;P2;SDS_P1;SDS_P2;PMS_P1;PMS_P2;Temp;Humidity;BMP_temperature;BMP_pressure;BME280_temperature;BME280_humidity;BME280_pressure;Samples;Min_cycle;Max_cycle;Signal;HPM_P1;HPM_P2
2022/06/01 00:02:18;;;;;;;8.25;4.25;;;;;;;;;;5021783;28;20060;-72
2022/06/01 00:04:45;;;;;;;8.15;3.90;;;;;;;;;;5044378;28;20061;-70
2022/06/01 00:07:12;;;;;;;8.30;4.43;;;;;;;;;;5022305;28;20149;-70
2022/06/01 00:09:40;;;;;;;7.15;3.78;;;;;;;;;;5021787;28;20099;-67
2022/06/01 00:12:11;;;;;;;10.45;5.78;;;;;;;;;;5044140;28;20045;-68
2022/06/01 00:14:38;;;;;;;7.00;4.10;;;;;;;;;;5039304;28;20053;-67
2022/06/01 00:17:04;;;;;;;9.02;5.55;;;;;;;;;;5030235;28;20049;-70
2022/06/01 00:19:31;;;;;;;8.88;4.65;;;;;;;;;;5023913;28;20041;-67
2022/06/01 00:22:14;;;;;;;12.63;6.75;;;;;;;;;;5028410;28;20050;-68
2022/06/01 00:24:43;;;;;;;11.20;6.32;;;;;;;;;;5009765;28;20145;-70
2022/06/01 00:27:11;;;;;;;9.68;5.55;;;;;;;;;;5027086;28;20180;-70
2022/06/01 00:29:38;;;;;;;11.88;7.05;;;;;;;;;;5021485;28;20053;-67
2022/06/01 00:32:05;;;;;;;11.90;6.55;;;;;;;;;;5027178;28;20061;-66
2022/06/01 00:34:32;;;;;;;6.68;4.05;;;;;;;;;;5021670;28;20053;-67
2022/06/01 00:36:59;;;;;;;7.55;4.20;;;;;;;;;;5027308;28;20057;-69
2022/06/01 00:39:25;;;;;;;7.47;4.57;;;;;;;;;;5022126;28;20055;-67
2022/06/01 00:41:53;;;;;;;7.95;3.92;;;;;;;;;;5025835;28;20175;-66
2022/06/01 00:44:20;;;;;;;10.88;4.07;;;;;;;;;;5027819;28;20111;-67
2022/06/01 00:46:47;;;;;;;8.38;4.13;;;;;;;;;;5022742;28;20060;-67
2022/06/01 00:49:15;;;;;;;7.97;4.30;;;;;;;;;;5028067;28;20107;-72
2022/06/01 00:51:43;;;;;;;8.32;3.95;;;;;;;;;;5020626;28;20155;-70
2022/06/01 00:54:10;;;;;;;7.97;4.30;;;;;;;;;;5026945;28;20049;-70
2022/06/01 00:56:39;;;;;;;11.75;6.72;;;;;;;;;;5021643;28;20057;-73
2022/06/01 00:59:10;;;;;;;7.93;3.83;;;;;;;;;;5026417;28;20049;-74
2022/06/01 01:01:37;;;;;;;7.78;3.65;;;;;;;;;;5021990;28;20058;-71
2022/06/01 01:04:05;;;;;;;11.30;5.90;;;;;;;;;;5030296;28;20133;-68
2022/06/01 01:06:33;;;;;;;11.38;6.40;;;;;;;;;;5027191;28;20049;-70
2022/06/01 01:09:00;;;;;;;9.57;5.30;;;;;;;;;;5026554;28;20099;-71
2022/06/01 01:11:30;;;;;;;13.30;6.55;;;;;;;;;;5014787;28;20042;-71
2022/06/01 01:13:58;;;;;;;7.25;3.88;;;;;;;;;;5006998;28;20115;-69
2022/06/01 01:16:27;;;;;;;10.73;4.97;;;;;;;;;;5007214;28;20063;-68
2022/06/01 01:18:54;;;;;;;8.68;4.53;;;;;;;;;;5027263;28;20140;-71
2022/06/01 01:21:28;;;;;;;7.35;4.15;;;;;;;;;;5021844;28;20057;-71
2022/06/01 01:24:01;;;;;;;8.70;4.30;;;;;;;;;;5026428;28;20060;-71
2022/06/01 01:26:30;;;;;;;8.10;3.80;;;;;;;;;;5021816;28;20057;-68
2022/06/01 01:28:56;;;;;;;;;;;;;;;;;;5025180;28;20073;-69
2022/06/01 01:31:24;;;;;;;9.88;3.97;;;;;;;;;;5028931;28;19944;-68
2022/06/01 01:33:52;;;;;;;7.85;3.97;;;;;;;;;;5029103;28;20141;-69
2022/06/01 01:36:21;;;;;;;8.68;3.97;;;;;;;;;;5030883;28;20049;-68
2022/06/01 01:38:50;;;;;;;7.13;3.88;;;;;;;;;;5007974;28;20061;-70
2022/06/01 01:41:16;;;;;;;;;;;;;;;;;;5011870;28;20054;-68
2022/06/01 01:43:48;;;;;;;5.50;2.88;;;;;;;;;;5041704;28;19960;-69
2022/06/01 01:46:14;;;;;;;7.03;3.70;;;;;;;;;;5030788;28;20057;-68
2022/06/01 01:48:41;;;;;;;8.25;2.97;;;;;;;;;;5011656;28;20120;-68
2022/06/01 01:51:08;;;;;;;6.18;3.30;;;;;;;;;;5011264;28;20050;-69
2022/06/01 01:53:35;;;;;;;6.80;3.45;;;;;;;;;;5017828;28;20057;-68
2022/06/01 01:56:05;;;;;;;5.78;3.03;;;;;;;;;;5031400;28;20053;-68
2022/06/01 01:58:35;;;;;;;5.00;2.70;;;;;;;;;;5027029;28;20053;-68
2022/06/01 02:01:06;;;;;;;6.15;3.42;;;;;;;;;;5030042;28;20042;-70
2022/06/01 02:03:35;;;;;;;7.15;3.15;;;;;;;;;;5017312;28;20038;-68
2022/06/01 02:06:04;;;;;;;7.13;3.03;;;;;;;;;;5020370;28;20053;-71
2022/06/01 02:08:32;;;;;;;5.43;2.72;;;;;;;;;;5024319;28;20057;-68
2022/06/01 02:13:46;;;;;;;5.75;2.70;;;;;;;;;;5024999;28;20119;-71
2022/06/01 02:16:14;;;;;;;4.80;2.85;;;;;;;;;;5030206;28;20056;-71
2022/06/01 02:18:43;;;;;;;5.45;2.80;;;;;;;;;;5024251;28;20056;-68
2022/06/01 02:21:13;;;;;;;6.88;2.80;;;;;;;;;;5029465;28;20107;-72
2022/06/01 02:23:41;;;;;;;9.77;3.05;;;;;;;;;;5015143;28;20097;-71
2022/06/01 02:26:09;;;;;;;5.78;2.60;;;;;;;;;;5030064;28;20068;-70
2022/06/01 02:28:40;;;;;;;8.07;2.75;;;;;;;;;;5028378;28;20084;-68
2022/06/01 02:31:07;;;;;;;16.42;3.20;;;;;;;;;;5045431;28;20057;-71
2022/06/01 02:33:36;;;;;;;10.00;2.72;;;;;;;;;;5029749;28;20050;-70
2022/06/01 02:36:04;;;;;;;4.93;2.47;;;;;;;;;;5023606;28;20081;-71
2022/06/01 02:38:33;;;;;;;6.68;2.70;;;;;;;;;;5028909;28;20049;-70
2022/06/01 02:41:00;;;;;;;5.22;2.80;;;;;;;;;;5007937;28;20060;-71
2022/06/01 02:43:29;;;;;;;5.60;2.80;;;;;;;;;;5027875;28;20108;-69
2022/06/01 02:45:57;;;;;;;6.47;2.40;;;;;;;;;;5023425;28;20106;-71
2022/06/01 02:48:23;;;;;;;5.72;2.50;;;;;;;;;;5029073;28;20057;-69
2022/06/01 02:50:52;;;;;;;4.95;2.30;;;;;;;;;;5023625;28;20111;-68
2022/06/01 02:53:19;;;;;;;3.97;2.22;;;;;;;;;;5028733;28;20057;-69
2022/06/01 02:55:45;;;;;;;3.90;2.22;;;;;;;;;;5023810;28;20060;-72
2022/06/01 02:58:13;;;;;;;4.03;2.20;;;;;;;;;;5029423;28;20053;-71
2022/06/01 03:00:40;;;;;;;4.55;2.05;;;;;;;;;;5023961;28;20140;-70
2022/06/01 03:03:08;;;;;;;4.55;2.00;;;;;;;;;;5029021;28;20067;-68
2022/06/01 03:05:36;;;;;;;4.13;2.20;;;;;;;;;;5011302;28;20064;-69
2022/06/01 03:08:05;;;;;;;3.80;1.98;;;;;;;;;;5062364;28;20041;-68
2022/06/01 03:10:31;;;;;;;3.75;1.92;;;;;;;;;;5025392;28;20060;-69
2022/06/01 03:12:58;;;;;;;7.60;2.05;;;;;;;;;;5028132;28;20053;-68
2022/06/01 03:15:25;;;;;;;3.58;2.00;;;;;;;;;;5047519;28;20049;-70
2022/06/01 03:17:53;;;;;;;2.95;1.70;;;;;;;;;;5022757;28;20057;-67
2022/06/01 03:20:21;;;;;;;3.42;1.80;;;;;;;;;;5029027;28;20164;-71
2022/06/01 03:22:48;;;;;;;3.67;1.63;;;;;;;;;;5014102;28;20060;-72
2022/06/01 03:25:19;;;;;;;3.38;1.67;;;;;;;;;;5028720;28;20057;-71
2022/06/01 03:27:46;;;;;;;4.43;1.90;;;;;;;;;;5023343;28;20115;-72
2022/06/01 03:30:15;;;;;;;2.25;1.60;;;;;;;;;;5045438;28;20053;-71
2022/06/01 03:32:43;;;;;;;3.00;1.60;;;;;;;;;;5025396;28;20128;-71
2022/06/01 03:35:18;;;;;;;2.28;1.60;;;;;;;;;;5027411;28;20053;-72
2022/06/01 03:37:44;;;;;;;3.90;1.65;;;;;;;;;;5030839;28;20053;-68
2022/06/01 03:40:12;;;;;;;3.20;1.55;;;;;;;;;;5039264;28;20054;-72
2022/06/01 03:42:40;;;;;;;3.80;1.77;;;;;;;;;;5045042;28;20055;-71
2022/06/01 03:47:57;;;;;;;5.13;1.67;;;;;;;;;;5013059;28;20054;-71
2022/06/01 03:50:24;;;;;;;1.92;1.38;;;;;;;;;;5035190;28;20065;-71
2022/06/01 03:52:51;;;;;;;2.88;1.50;;;;;;;;;;5008728;28;20054;-71
2022/06/01 03:55:18;;;;;;;2.80;1.50;;;;;;;;;;5007122;28;20065;-71
2022/06/01 03:57:46;;;;;;;4.60;1.77;;;;;;;;;;5025365;28;20057;-71
2022/06/01 04:00:14;;;;;;;4.40;1.73;;;;;;;;;;5027440;28;20060;-71
2022/06/01 04:02:40;;;;;;;3.33;1.58;;;;;;;;;;5038245;28;20061;-71
2022/06/01 04:05:08;;;;;;;3.00;1.30;;;;;;;;;;5022506;28;20053;-69
2022/06/01 04:07:34;;;;;;;2.80;1.40;;;;;;;;;;5016544;28;20077;-71
2022/06/01 04:10:01;;;;;;;2.72;1.48;;;;;;;;;;5007463;28;20053;-69
2022/06/01 04:12:28;;;;;;;3.13;1.40;;;;;;;;;;5007256;28;20057;-68
2022/06/01 04:14:56;;;;;;;3.05;1.77;;;;;;;;;;5028107;28;20049;-68
2022/06/01 04:17:23;;;;;;;2.67;1.60;;;;;;;;;;5028727;28;20057;-70
2022/06/01 04:19:49;;;;;;;2.35;1.48;;;;;;;;;;5021084;28;20148;-70
2022/06/01 04:22:17;;;;;;;9.93;2.70;;;;;;;;;;5043979;28;20053;-71
2022/06/01 04:24:45;;;;;;;2.25;1.42;;;;;;;;;;5004732;28;20049;-71
2022/06/01 04:27:11;;;;;;;8.90;4.88;;;;;;;;;;5026939;28;20057;-71
2022/06/01 04:29:39;;;;;;;5.13;2.97;;;;;;;;;;5021012;28;20064;-69
2022/06/01 04:32:09;;;;;;;6.78;3.50;;;;;;;;;;5027420;28;20053;-68
2022/06/01 04:34:38;;;;;;;7.32;3.78;;;;;;;;;;5040505;28;20063;-68
2022/06/01 04:37:04;;;;;;;9.07;5.07;;;;;;;;;;5025785;28;20041;-68
2022/06/01 04:39:31;;;;;;;8.05;4.20;;;;;;;;;;5028098;28;20120;-69
2022/06/01 04:41:58;;;;;;;11.25;5.43;;;;;;;;;;5019398;28;20132;-69
2022/06/01 04:44:25;;;;;;;6.95;3.75;;;;;;;;;;5027152;28;20111;-70
2022/06/01 04:46:52;;;;;;;13.57;5.82;;;;;;;;;;5020289;28;20059;-69
2022/06/01 04:49:20;;;;;;;7.90;3.10;;;;;;;;;;5043906;28;20085;-67
2022/06/01 04:51:47;;;;;;;12.80;6.53;;;;;;;;;;5020791;28;20072;-71
2022/06/01 04:54:13;;;;;;;20.20;9.63;;;;;;;;;;5027237;28;20053;-70
2022/06/01 04:56:40;;;;;;;20.08;9.02;;;;;;;;;;5025767;28;20359;-72
2022/06/01 04:59:07;;;;;;;5.65;2.67;;;;;;;;;;5049479;28;20057;-69
2022/06/01 05:01:33;;;;;;;9.38;3.78;;;;;;;;;;5017099;28;20073;-68
2022/06/01 05:04:00;;;;;;;10.55;4.93;;;;;;;;;;5014709;28;20049;-68
2022/06/01 05:06:28;;;;;;;11.90;5.70;;;;;;;;;;5026193;28;20119;-71
2022/06/01 05:08:55;;;;;;;9.75;5.15;;;;;;;;;;5018167;28;20057;-72
2022/06/01 05:11:22;;;;;;;11.95;6.10;;;;;;;;;;5027172;28;20045;-70
2022/06/01 05:13:49;;;;;;;11.25;5.32;;;;;;;;;;5022608;28;20057;-71
2022/06/01 05:16:19;;;;;;;22.38;11.57;;;;;;;;;;5040027;28;20059;-68
2022/06/01 05:18:45;;;;;;;18.85;7.88;;;;;;;;;;5057948;28;20080;-69
2022/06/01 05:21:12;;;;;;;17.23;7.05;;;;;;;;;;5019885;28;20057;-68
2022/06/01 05:23:40;;;;;;;12.70;7.22;;;;;;;;;;5025940;28;20054;-69
2022/06/01 05:26:07;;;;;;;13.90;7.53;;;;;;;;;;5019530;28;20053;-69
2022/06/01 05:28:34;;;;;;;12.45;5.47;;;;;;;;;;5026004;28;20136;-71
2022/06/01 05:31:02;;;;;;;8.70;4.38;;;;;;;;;;5051687;28;20071;-71
2022/06/01 05:33:29;;;;;;;12.30;6.25;;;;;;;;;;5026144;28;20057;-72
2022/06/01 05:35:56;;;;;;;7.15;4.18;;;;;;;;;;5019487;28;20054;-71
2022/06/01 05:38:22;;;;;;;6.78;3.45;;;;;;;;;;5023894;28;20045;-71
2022/06/01 05:40:51;;;;;;;7.03;3.30;;;;;;;;;;5019851;28;20045;-72
2022/06/01 05:43:18;;;;;;;7.40;3.50;;;;;;;;;;5042413;28;20045;-72
2022/06/01 05:45:45;;;;;;;8.68;4.60;;;;;;;;;;5017354;28;20057;-72
2022/06/01 05:48:12;;;;;;;10.70;5.25;;;;;;;;;;5005620;28;20048;-70
2022/06/01 05:50:39;;;;;;;7.85;3.97;;;;;;;;;;5001619;28;20054;-70
2022/06/01 05:53:06;;;;;;;7.70;4.20;;;;;;;;;;5025897;28;20061;-71
2022/06/01 05:55:35;;;;;;;15.65;6.30;;;;;;;;;;5023488;28;20064;-72
2022/06/01 05:58:03;;;;;;;10.93;5.93;;;;;;;;;;5021725;28;20048;-74
2022/06/01 06:00:29;;;;;;;11.73;5.00;;;;;;;;;;5026594;28;20137;-71
2022/06/01 06:02:56;;;;;;;8.68;4.22;;;;;;;;;;5020288;28;20052;-74
2022/06/01 06:08:09;;;;;;;8.20;4.35;;;;;;;;;;5007249;28;20120;-70
2022/06/01 06:10:36;;;;;;;8.77;4.25;;;;;;;;;;5025434;28;20061;-68
2022/06/01 06:13:05;;;;;;;13.35;5.15;;;;;;;;;;5035952;28;20049;-70
2022/06/01 06:15:32;;;;;;;9.73;5.40;;;;;;;;;;5028565;28;20053;-69
2022/06/01 06:17:58;;;;;;;9.38;4.95;;;;;;;;;;5021060;28;20070;-70
2022/06/01 06:20:25;;;;;;;14.85;5.95;;;;;;;;;;5024795;28;20068;-69
2022/06/01 06:22:51;;;;;;;8.85;4.70;;;;;;;;;;5045475;28;20045;-68
2022/06/01 06:25:18;;;;;;;9.30;4.03;;;;;;;;;;5037139;28;20055;-68
2022/06/01 06:27:45;;;;;;;10.27;5.10;;;;;;;;;;5045348;28;20057;-69
2022/06/01 06:30:15;;;;;;;12.23;5.47;;;;;;;;;;5036877;28;20053;-68
2022/06/01 06:32:41;;;;;;;10.57;5.15;;;;;;;;;;5045302;28;20049;-69
2022/06/01 06:35:10;;;;;;;11.10;4.70;;;;;;;;;;5036939;28;20057;-72
2022/06/01 06:37:36;;;;;;;8.85;3.97;;;;;;;;;;5044229;28;20058;-69
2022/06/01 06:40:03;;;;;;;8.90;3.75;;;;;;;;;;5023458;28;20058;-69
2022/06/01 06:42:30;;;;;;;8.38;3.90;;;;;;;;;;5049496;28;20081;-69
2022/06/01 06:44:57;;;;;;;10.52;3.95;;;;;;;;;;5028572;28;20049;-70
2022/06/01 06:47:25;;;;;;;7.30;3.60;;;;;;;;;;5022522;28;20057;-68
2022/06/01 06:49:51;;;;;;;12.40;3.45;;;;;;;;;;5029667;28;20060;-68
2022/06/01 06:52:18;;;;;;;8.45;4.00;;;;;;;;;;5022559;28;20089;-71
2022/06/01 06:54:45;;;;;;;9.68;4.53;;;;;;;;;;5043883;28;20045;-68
2022/06/01 06:57:11;;;;;;;8.27;3.85;;;;;;;;;;5036770;28;20053;-69
2022/06/01 06:59:38;;;;;;;9.18;3.92;;;;;;;;;;5028082;28;20156;-70
2022/06/01 07:02:06;;;;;;;8.38;3.55;;;;;;;;;;5044495;28;20053;-68
2022/06/01 07:04:35;;;;;;;10.00;4.00;;;;;;;;;;5036036;28;20054;-70
2022/06/01 07:07:02;;;;;;;8.45;4.03;;;;;;;;;;5028041;28;20048;-71
2022/06/01 07:09:28;;;;;;;9.48;3.75;;;;;;;;;;5037160;28;20063;-69
2022/06/01 07:11:55;;;;;;;8.32;3.70;;;;;;;;;;5027681;28;20068;-68
2022/06/01 07:14:22;;;;;;;6.45;3.50;;;;;;;;;;5019044;28;20049;-69
2022/06/01 07:16:49;;;;;;;7.13;3.60;;;;;;;;;;5027527;28;20059;-70
2022/06/01 07:19:16;;;;;;;8.57;3.33;;;;;;;;;;5037800;28;20049;-69
2022/06/01 07:21:44;;;;;;;9.63;3.83;;;;;;;;;;5043820;28;20132;-69
2022/06/01 07:24:11;;;;;;;8.13;4.15;;;;;;;;;;5058723;28;20061;-69
2022/06/01 07:26:39;;;;;;;7.90;3.30;;;;;;;;;;5055333;28;20140;-69
2022/06/01 07:29:06;;;;;;;10.57;4.03;;;;;;;;;;5026571;28;20077;-71
2022/06/01 07:31:33;;;;;;;9.80;4.65;;;;;;;;;;5036148;28;20300;-69
2022/06/01 07:34:00;;;;;;;10.23;4.30;;;;;;;;;;5027504;28;20049;-69
2022/06/01 07:36:27;;;;;;;12.15;4.70;;;;;;;;;;5038238;28;20140;-72
2022/06/01 07:44:37;;;;;;;7.97;4.10;;;;;;;;;;4970461;28;20133;-71
2022/06/01 07:47:05;;;;;;;7.75;3.67;;;;;;;;;;5005175;28;20060;-73
2022/06/01 07:49:31;;;;;;;9.45;4.70;;;;;;;;;;5041516;28;20061;-75
2022/06/01 07:51:58;;;;;;;7.80;3.97;;;;;;;;;;5037973;28;20084;-70
2022/06/01 07:54:26;;;;;;;9.00;4.40;;;;;;;;;;5027522;28;20063;-68
2022/06/01 07:56:53;;;;;;;9.55;3.40;;;;;;;;;;5038340;28;20068;-70
2022/06/01 07:59:20;;;;;;;9.93;4.10;;;;;;;;;;5043346;28;20081;-71
2022/06/01 08:01:46;;;;;;;7.63;3.03;;;;;;;;;;5020593;28;20069;-69
2022/06/01 08:04:16;;;;;;;10.20;3.30;;;;;;;;;;5026872;28;20080;-69
2022/06/01 08:06:42;;;;;;;6.00;2.95;;;;;;;;;;5054319;28;20132;-71
2022/06/01 08:09:09;;;;;;;6.85;3.00;;;;;;;;;;5044250;28;20057;-68
2022/06/01 08:14:21;;;;;;;9.48;3.58;;;;;;;;;;5026368;28;20172;-71
2022/06/01 08:16:48;;;;;;;9.30;3.00;;;;;;;;;;5020983;28;20057;-76
2022/06/01 08:19:15;;;;;;;7.43;3.60;;;;;;;;;;5025902;28;20072;-74
2022/06/01 08:21:42;;;;;;;9.40;3.25;;;;;;;;;;5053654;28;20060;-77
2022/06/01 08:24:09;;;;;;;6.05;2.80;;;;;;;;;;5026402;28;20057;-79
2022/06/01 08:26:37;;;;;;;6.28;2.90;;;;;;;;;;5026312;28;20061;-71
2022/06/01 08:29:04;;;;;;;7.40;2.95;;;;;;;;;;5024910;28;20049;-76
2022/06/01 08:31:31;;;;;;;5.03;2.67;;;;;;;;;;5027169;28;20115;-79
2022/06/01 08:33:59;;;;;;;5.20;2.90;;;;;;;;;;5038111;28;20061;-70
2022/06/01 08:36:25;;;;;;;4.93;2.67;;;;;;;;;;5025557;28;20060;-76
2022/06/01 08:38:52;;;;;;;5.82;2.28;;;;;;;;;;5020768;28;20053;-78
2022/06/01 08:41:20;;;;;;;5.68;2.33;;;;;;;;;;5051656;28;20144;-72
2022/06/01 08:43:51;;;;;;;5.85;2.60;;;;;;;;;;5019977;28;20057;-75
2022/06/01 08:46:18;;;;;;;4.65;2.08;;;;;;;;;;5042453;28;20100;-75
2022/06/01 08:48:47;;;;;;;6.43;2.70;;;;;;;;;;5020495;28;20122;-73
2022/06/01 08:51:15;;;;;;;5.63;2.47;;;;;;;;;;5041943;28;20145;-72
2022/06/01 08:53:43;;;;;;;6.40;2.35;;;;;;;;;;5037073;28;20067;-75
2022/06/01 08:56:11;;;;;;;4.95;2.60;;;;;;;;;;5025842;28;20055;-76
2022/06/01 08:58:43;;;;;;;4.80;2.33;;;;;;;;;;5018415;28;20049;-79
2022/06/01 09:01:15;;;;;;;3.13;1.80;;;;;;;;;;5058159;28;20053;-74
2022/06/01 09:03:47;;;;;;;8.27;2.85;;;;;;;;;;5019251;28;20058;-75
2022/06/01 09:06:16;;;;;;;7.25;3.15;;;;;;;;;;5040540;28;20056;-71
2022/06/01 09:08:46;;;;;;;6.47;2.95;;;;;;;;;;5020333;28;20053;-73
2022/06/01 09:11:14;;;;;;;8.30;2.97;;;;;;;;;;5041526;28;20088;-74
2022/06/01 09:13:52;;;;;;;5.43;2.65;;;;;;;;;;5019012;28;20068;-76
2022/06/01 09:16:23;;;;;;;7.38;3.08;;;;;;;;;;5025885;28;20061;-76
2022/06/01 09:18:50;;;;;;;6.05;3.10;;;;;;;;;;5018952;28;20136;-79
2022/06/01 09:24:04;;;;;;;4.90;2.65;;;;;;;;;;5039497;28;20296;-77
2022/06/01 09:26:31;;;;;;;5.25;2.58;;;;;;;;;;5024897;28;20072;-73
2022/06/01 09:28:59;;;;;;;6.88;3.05;;;;;;;;;;5025908;28;20061;-74
2022/06/01 09:31:30;;;;;;;5.05;2.70;;;;;;;;;;5036884;28;20054;-75
2022/06/01 09:34:14;;;;;;;4.68;2.63;;;;;;;;;;5043543;28;20064;-81
2022/06/01 09:36:49;;;;;;;5.90;3.10;;;;;;;;;;5053509;28;20077;-70
2022/06/01 09:39:19;;;;;;;5.75;2.55;;;;;;;;;;5025755;28;20049;-74
2022/06/01 09:41:46;;;;;;;6.60;2.83;;;;;;;;;;5017168;28;20073;-75
2022/06/01 09:44:18;;;;;;;5.55;2.28;;;;;;;;;;5025672;28;20053;-69
2022/06/01 09:46:53;;;;;;;5.32;2.47;;;;;;;;;;5022140;28;20053;-71
2022/06/01 09:49:24;;;;;;;6.07;2.80;;;;;;;;;;5023533;28;20049;-68
2022/06/01 09:51:55;;;;;;;6.47;2.90;;;;;;;;;;5037330;28;20057;-70
2022/06/01 09:54:27;;;;;;;5.88;2.97;;;;;;;;;;5030190;28;20064;-77
2022/06/01 09:56:55;;;;;;;8.35;3.67;;;;;;;;;;5023424;28;20049;-70
2022/06/01 10:08:06;;;;;;;8.55;2.90;;;;;;;;;;4960381;28;20070;-74
2022/06/01 10:10:33;;;;;;;5.00;2.53;;;;;;;;;;5012679;28;20068;-77
2022/06/01 10:13:00;;;;;;;4.93;2.10;;;;;;;;;;5020074;28;20058;-80
2022/06/01 10:15:31;;;;;;;5.18;2.70;;;;;;;;;;5046811;28;20148;-72
2022/06/01 10:18:02;;;;;;;4.15;2.60;;;;;;;;;;5020408;28;20063;-69
2022/06/01 10:20:31;;;;;;;8.00;3.60;;;;;;;;;;5029314;28;20064;-69
2022/06/01 10:23:00;;;;;;;5.28;2.58;;;;;;;;;;5021012;28;20081;-75
2022/06/01 10:25:29;;;;;;;4.28;2.10;;;;;;;;;;5028463;28;20049;-70
2022/06/01 10:27:57;;;;;;;6.43;3.72;;;;;;;;;;5027536;28;20085;-73
2022/06/01 10:30:29;;;;;;;6.45;3.40;;;;;;;;;;5021988;28;20060;-74
2022/06/01 10:32:58;;;;;;;5.82;3.00;;;;;;;;;;5028880;28;20057;-72
2022/06/01 10:35:34;;;;;;;4.97;2.38;;;;;;;;;;5019688;28;20139;-74
2022/06/01 10:38:04;;;;;;;3.75;2.20;;;;;;;;;;5045097;28;20053;-73
2022/06/01 10:40:35;;;;;;;3.78;2.30;;;;;;;;;;5017443;28;20049;-76
2022/06/01 10:43:17;;;;;;;4.90;2.20;;;;;;;;;;5043936;28;20061;-68
2022/06/01 10:45:49;;;;;;;6.90;2.88;;;;;;;;;;5019296;28;20061;-68
2022/06/01 10:48:18;;;;;;;5.05;2.50;;;;;;;;;;5027149;28;20068;-71
2022/06/01 10:50:50;;;;;;;3.75;2.20;;;;;;;;;;5020998;28;20061;-73
2022/06/01 10:53:22;;;;;;;2.92;1.80;;;;;;;;;;5025543;28;20088;-70
2022/06/01 10:55:49;;;;;;;4.47;1.88;;;;;;;;;;5044535;28;20068;-71
2022/06/01 10:58:18;;;;;;;3.83;1.83;;;;;;;;;;5034060;28;20135;-70
2022/06/01 11:00:50;;;;;;;4.15;2.13;;;;;;;;;;5028135;28;20140;-69
2022/06/01 11:03:35;;;;;;;4.90;2.47;;;;;;;;;;5053451;28;20080;-72
2022/06/01 11:06:12;;;;;;;6.82;2.92;;;;;;;;;;5061540;28;20050;-72
2022/06/01 11:08:44;;;;;;;3.97;1.90;;;;;;;;;;5018236;28;20049;-70
2022/06/01 11:11:12;;;;;;;5.05;2.35;;;;;;;;;;5026910;28;20057;-67
2022/06/01 11:14:00;;;;;;;5.05;2.50;;;;;;;;;;5043219;28;20068;-67
2022/06/01 11:16:34;;;;;;;6.88;2.78;;;;;;;;;;5022193;28;20050;-69
2022/06/01 11:19:11;;;;;;;5.63;2.47;;;;;;;;;;5022003;28;20049;-75
2022/06/01 11:21:45;;;;;;;4.68;2.38;;;;;;;;;;5043057;28;20149;-70
2022/06/01 11:24:27;;;;;;;4.47;2.10;;;;;;;;;;5021183;28;20034;-73
2022/06/01 11:27:00;;;;;;;2.80;1.60;;;;;;;;;;5027919;28;20057;-68
2022/06/01 11:29:32;;;;;;;2.35;1.23;;;;;;;;;;5018297;28;20170;-70
2022/06/01 11:32:09;;;;;;;2.15;1.00;;;;;;;;;;5026934;28;20064;-73
2022/06/01 11:34:38;;;;;;;3.67;1.20;;;;;;;;;;5038399;28;20042;-72
2022/06/01 11:37:10;;;;;;;3.53;1.10;;;;;;;;;;5044633;28;20077;-72
2022/06/01 11:39:40;;;;;;;2.63;1.40;;;;;;;;;;5037698;28;20045;-72
2022/06/01 11:42:09;;;;;;;2.35;1.25;;;;;;;;;;5043789;28;20056;-69
2022/06/01 11:44:35;;;;;;;;;;;;;;;;;;5020323;28;20128;-67
2022/06/01 11:47:04;;;;;;;6.55;1.45;;;;;;;;;;5052959;28;19921;-67
2022/06/01 11:49:30;;;;;;;;;;;;;;;;;;5030308;28;20045;-73
2022/06/01 11:52:12;;;;;;;2.53;1.23;;;;;;;;;;5038326;28;19931;-69
2022/06/01 11:54:41;;;;;;;2.53;1.38;;;;;;;;;;5044714;28;20085;-73
2022/06/01 11:57:18;;;;;;;3.15;1.40;;;;;;;;;;5020543;28;20046;-75
2022/06/01 11:59:46;;;;;;;4.95;1.40;;;;;;;;;;5025700;28;20060;-73
2022/06/01 12:02:40;;;;;;;0.98;0.82;;;;;;;;;;5021359;28;20235;-72
2022/06/01 12:05:11;;;;;;;5.07;1.15;;;;;;;;;;5056958;28;20149;-68
2022/06/01 12:07:40;;;;;;;1.90;1.10;;;;;;;;;;5036268;28;20041;-68
2022/06/01 12:10:20;;;;;;;2.53;1.10;;;;;;;;;;5023624;28;20052;-72
2022/06/01 12:12:57;;;;;;;1.65;1.00;;;;;;;;;;5052654;28;20057;-69
2022/06/01 12:15:29;;;;;;;2.35;1.10;;;;;;;;;;5026168;28;20053;-69
2022/06/01 12:18:14;;;;;;;1.00;0.90;;;;;;;;;;5020339;28;20052;-69
2022/06/01 12:20:51;;;;;;;1.45;0.93;;;;;;;;;;5013485;28;20134;-68
2022/06/01 12:29:31;;;;;;;1.55;0.90;;;;;;;;;;5040207;28;20053;-67
2022/06/01 12:32:12;;;;;;;1.27;0.80;;;;;;;;;;5053192;28;20163;-68
2022/06/01 12:34:50;;;;;;;1.75;0.90;;;;;;;;;;5027366;28;20064;-70
2022/06/01 12:37:20;;;;;;;1.52;1.20;;;;;;;;;;5019164;28;20049;-69
2022/06/01 12:39:48;;;;;;;1.98;0.88;;;;;;;;;;5025823;28;20068;-70
2022/06/01 12:42:22;;;;;;;2.13;1.30;;;;;;;;;;5019669;28;20041;-69
2022/06/01 12:44:51;;;;;;;1.88;1.17;;;;;;;;;;5043772;28;20060;-68
2022/06/01 12:47:22;;;;;;;2.58;1.10;;;;;;;;;;5022430;28;20152;-69
2022/06/01 12:49:49;;;;;;;3.13;0.90;;;;;;;;;;5043868;28;20053;-68
2022/06/01 12:52:18;;;;;;;1.27;0.90;;;;;;;;;;5021016;28;20057;-68
2022/06/01 12:54:53;;;;;;;3.33;1.00;;;;;;;;;;5043313;28;20140;-69
2022/06/01 12:57:25;;;;;;;1.23;0.98;;;;;;;;;;5038180;28;20059;-67
2022/06/01 12:59:56;;;;;;;1.40;0.95;;;;;;;;;;5024402;28;20140;-68
2022/06/01 13:02:22;;;;;;;4.95;1.17;;;;;;;;;;5041586;28;20041;-69
2022/06/01 13:04:53;;;;;;;1.75;1.10;;;;;;;;;;5022991;28;20145;-69
2022/06/01 13:07:21;;;;;;;3.75;1.13;;;;;;;;;;5025625;28;20055;-69
2022/06/01 13:09:57;;;;;;;1.58;1.17;;;;;;;;;;5017386;28;20050;-69
2022/06/01 13:12:28;;;;;;;1.75;1.17;;;;;;;;;;5053997;28;20053;-69
2022/06/01 13:15:06;;;;;;;2.95;1.40;;;;;;;;;;5037985;28;20059;-69
2022/06/01 13:17:33;;;;;;;3.17;1.60;;;;;;;;;;5026022;28;20068;-68
2022/06/01 13:20:01;;;;;;;2.95;1.42;;;;;;;;;;5000482;28;20068;-69
2022/06/01 13:22:30;;;;;;;6.88;1.50;;;;;;;;;;5045295;28;20038;-69
2022/06/01 13:25:06;;;;;;;3.53;1.30;;;;;;;;;;5040401;28;20108;-68
2022/06/01 13:27:35;;;;;;;3.85;1.73;;;;;;;;;;5030935;28;20042;-68
2022/06/01 13:30:02;;;;;;;5.32;1.35;;;;;;;;;;5031582;28;20057;-68
2022/06/01 13:32:31;;;;;;;4.15;1.58;;;;;;;;;;5040353;28;20049;-67
2022/06/01 13:35:02;;;;;;;3.15;1.23;;;;;;;;;;5031410;28;20049;-68
2022/06/01 13:37:30;;;;;;;2.67;1.55;;;;;;;;;;5037840;28;20064;-68
2022/06/01 13:39:59;;;;;;;4.53;1.45;;;;;;;;;;5044973;28;20057;-68
2022/06/01 13:42:31;;;;;;;2.78;1.38;;;;;;;;;;5021548;28;20061;-67
2022/06/01 13:45:06;;;;;;;2.95;1.63;;;;;;;;;;5028760;28;20050;-68
2022/06/01 13:47:35;;;;;;;2.83;1.70;;;;;;;;;;5020636;28;20049;-68
2022/06/01 13:50:01;;;;;;;;;;;;;;;;;;5029837;28;20095;-68
2022/06/01 13:52:29;;;;;;;1.73;1.13;;;;;;;;;;5028865;28;20015;-68
2022/06/01 13:55:18;;;;;;;3.60;1.08;;;;;;;;;;5034426;28;20060;-67
2022/06/01 13:57:49;;;;;;;2.33;1.20;;;;;;;;;;5046544;28;20058;-67
2022/06/01 14:00:22;;;;;;;5.00;1.08;;;;;;;;;;5037028;28;20053;-67
2022/06/01 14:02:53;;;;;;;3.38;1.55;;;;;;;;;;5028205;28;20103;-67
2022/06/01 14:05:21;;;;;;;4.32;1.33;;;;;;;;;;5038728;28;20057;-68
2022/06/01 14:07:49;;;;;;;2.55;1.45;;;;;;;;;;5060600;28;20059;-67
2022/06/01 14:10:16;;;;;;;3.90;1.50;;;;;;;;;;5022100;28;20061;-67
2022/06/01 14:12:44;;;;;;;6.85;1.50;;;;;;;;;;5045782;28;20053;-68
2022/06/01 14:15:12;;;;;;;4.85;1.85;;;;;;;;;;5042102;28;20053;-68
2022/06/01 14:17:39;;;;;;;;;;;;;;;;;;5056088;28;20053;-67
2022/06/01 14:20:08;;;;;;;3.38;1.60;;;;;;;;;;5028815;28;19929;-68
2022/06/01 14:22:35;;;;;;;3.28;1.50;;;;;;;;;;5038353;28;20049;-68
2022/06/01 14:30:29;;;;;;;3.63;1.30;;;;;;;;;;5063312;28;20057;-68
2022/06/01 14:32:56;;;;;;;4.18;1.50;;;;;;;;;;5022795;28;20053;-68
2022/06/01 14:35:26;;;;;;;4.05;1.80;;;;;;;;;;5046172;28;20103;-68
2022/06/01 14:37:54;;;;;;;5.55;1.88;;;;;;;;;;5039896;28;20057;-68
2022/06/01 14:40:21;;;;;;;3.70;1.65;;;;;;;;;;5028287;28;20076;-68
2022/06/01 14:42:47;;;;;;;1.88;1.27;;;;;;;;;;5021777;28;20056;-68
2022/06/01 14:45:15;;;;;;;4.78;2.10;;;;;;;;;;5044939;28;20140;-68
2022/06/01 14:47:41;;;;;;;3.85;2.00;;;;;;;;;;5039011;28;20046;-68
2022/06/01 14:50:08;;;;;;;8.50;2.40;;;;;;;;;;5045057;28;20136;-68
2022/06/01 14:52:37;;;;;;;3.75;1.90;;;;;;;;;;5037446;28;20092;-68
2022/06/01 14:55:05;;;;;;;3.78;1.90;;;;;;;;;;5029952;28;20053;-70
2022/06/01 14:57:32;;;;;;;3.55;1.45;;;;;;;;;;5040143;28;20060;-68
2022/06/01 14:59:59;;;;;;;3.88;2.15;;;;;;;;;;5045121;28;20049;-68
2022/06/01 15:02:25;;;;;;;3.90;2.00;;;;;;;;;;5022716;28;20125;-68
2022/06/01 15:04:54;;;;;;;3.30;1.67;;;;;;;;;;5028228;28;20057;-68
2022/06/01 15:07:21;;;;;;;4.78;1.77;;;;;;;;;;5028052;28;20049;-69
2022/06/01 15:09:49;;;;;;;3.47;1.70;;;;;;;;;;5021214;28;20061;-68
2022/06/01 15:12:16;;;;;;;3.47;1.70;;;;;;;;;;5046256;28;20096;-68
2022/06/01 15:14:43;;;;;;;4.28;2.15;;;;;;;;;;5023982;28;20095;-68
2022/06/01 15:17:16;;;;;;;4.80;1.90;;;;;;;;;;5028200;28;20045;-68
2022/06/01 15:19:46;;;;;;;3.92;1.65;;;;;;;;;;5020885;28;20057;-68
2022/06/01 15:22:13;;;;;;;6.18;1.67;;;;;;;;;;5026788;28;20061;-68
2022/06/01 15:24:40;;;;;;;5.40;1.77;;;;;;;;;;5019841;28;20058;-68
2022/06/01 15:27:09;;;;;;;2.58;1.33;;;;;;;;;;5027259;28;20053;-68
2022/06/01 15:40:34;;;;;;;3.15;1.60;;;;;;;;;;5020278;28;20088;-68
2022/06/01 15:43:02;;;;;;;4.10;1.50;;;;;;;;;;5044345;28;20057;-68
2022/06/01 15:45:31;;;;;;;4.28;1.55;;;;;;;;;;5021581;28;20057;-68